createdAt,value
2018-12-30T08:05:45.877Z,6.61
2018-12-30T08:08:38.941Z,6.62
2018-12-30T08:11:28.986Z,6.63
2018-12-30T08:14:26.784Z,6.68
2018-12-30T08:17:17.021Z,6.75
2018-12-30T08:20:06.779Z,6.77
2018-12-30T08:23:02.451Z,6.84
2018-12-30T08:25:55.919Z,6.85
2018-12-30T08:28:45.412Z,6.90
2018-12-30T08:31:35.997Z,6.84
2018-12-30T08:34:25.179Z,6.87
2018-12-30T08:40:20.725Z,6.90
2018-12-30T08:46:17.186Z,6.91
2018-12-30T08:49:06.119Z,6.92
2018-12-30T08:52:00.037Z,6.91
2018-12-30T08:54:50.437Z,7.01
2018-12-30T08:57:39.036Z,7.10
2018-12-30T09:00:27.518Z,7.22
2018-12-30T09:03:17.717Z,7.31
2018-12-30T09:06:05.824Z,8.16
2018-12-30T09:08:57.980Z,7.70
2018-12-30T09:11:51.253Z,8.41
2018-12-30T09:14:41.104Z,7.80
2018-12-30T09:17:29.800Z,7.76
2018-12-30T09:20:21.870Z,7.71
2018-12-30T09:23:10.703Z,7.66
2018-12-30T09:25:59.644Z,8.45
2018-12-30T09:29:00.893Z,8.71
2018-12-30T09:31:55.627Z,8.92
2018-12-30T09:34:45.845Z,9.01
2018-12-30T09:37:34.554Z,8.25
2018-12-30T09:40:31.494Z,8.15
2018-12-30T09:43:20.751Z,8.11
2018-12-30T09:46:11.572Z,8.07
2018-12-30T09:49:02.361Z,9.00
2018-12-30T09:51:53.396Z,9.28
2018-12-30T09:54:59.490Z,8.48
2018-12-30T09:57:48.268Z,8.37
2018-12-30T10:00:41.757Z,8.35
2018-12-30T10:03:32.508Z,8.34
2018-12-30T10:06:22.444Z,8.37
2018-12-30T10:09:12.548Z,8.34
2018-12-30T10:12:10.250Z,8.37
2018-12-30T10:15:02.067Z,8.40
2018-12-30T10:17:47.053Z,8.52
2018-12-30T10:20:34.388Z,8.60
2018-12-30T10:23:25.240Z,8.56
2018-12-30T10:26:21.310Z,8.65
2018-12-30T10:29:17.859Z,8.67
2018-12-30T10:32:05.192Z,8.66
2018-12-30T10:34:55.245Z,9.59
2018-12-30T10:37:44.047Z,9.00
2018-12-30T10:40:36.010Z,8.84
2018-12-30T10:43:24.216Z,8.81
2018-12-30T10:46:16.405Z,8.89
2018-12-30T10:49:07.192Z,9.86
2018-12-30T10:51:55.704Z,9.04
2018-12-30T10:54:45.150Z,8.87
2018-12-30T10:57:38.065Z,8.73
2018-12-30T11:00:26.975Z,8.76
2018-12-30T11:03:15.650Z,8.66
2018-12-30T11:09:16.802Z,8.58
2018-12-30T11:12:04.663Z,8.57
2018-12-30T11:14:52.801Z,8.56
2018-12-30T11:17:40.791Z,8.51
2018-12-30T11:20:30.597Z,8.50
2018-12-30T11:23:18.821Z,9.37
2018-12-30T11:26:06.683Z,8.72
2018-12-30T11:28:54.698Z,8.61
2018-12-30T11:31:46.019Z,8.58
2018-12-30T11:34:33.522Z,8.52
2018-12-30T11:37:29.563Z,8.53
2018-12-30T11:40:18.918Z,8.52
2018-12-30T11:46:24.287Z,8.67
2018-12-30T11:49:15.767Z,8.73
2018-12-30T11:52:03.227Z,8.81
2018-12-30T11:54:55.333Z,8.86
2018-12-30T11:57:44.584Z,8.92
2018-12-30T12:00:49.209Z,9.01
2018-12-30T12:03:37.868Z,9.00
2018-12-30T12:06:32.924Z,9.00
2018-12-30T12:09:22.335Z,8.96
2018-12-30T12:15:19.619Z,8.74
2018-12-30T12:18:08.866Z,8.71
2018-12-30T12:21:02.072Z,8.68
2018-12-30T12:23:51.430Z,9.50
2018-12-30T12:26:42.537Z,8.97
2018-12-30T12:29:36.227Z,8.84
2018-12-30T12:32:25.288Z,8.77
2018-12-30T12:35:15.293Z,8.74
2018-12-30T12:38:04.357Z,8.70
2018-12-30T12:40:55.005Z,9.59
2018-12-30T12:46:50.899Z,8.93
2018-12-30T12:49:39.811Z,8.91
2018-12-30T12:52:29.464Z,8.90
2018-12-30T12:55:18.706Z,8.91
2018-12-30T12:58:09.023Z,8.92
2018-12-30T13:01:07.258Z,8.95
2018-12-30T13:03:58.433Z,8.95
2018-12-30T13:06:47.576Z,8.96
2018-12-30T13:09:37.797Z,8.90
2018-12-30T13:12:36.352Z,8.83
2018-12-30T13:15:33.744Z,8.79
2018-12-30T13:18:26.692Z,8.81
2018-12-30T13:21:17.766Z,8.88
2018-12-30T13:24:05.301Z,8.87
2018-12-30T13:26:57.595Z,8.90
2018-12-30T13:32:57.592Z,9.09
2018-12-30T13:35:45.863Z,8.98
2018-12-30T13:41:45.713Z,8.99
2018-12-30T13:44:35.591Z,8.86
2018-12-30T13:47:24.493Z,8.72
2018-12-30T13:50:13.457Z,8.69
2018-12-30T13:53:05.940Z,8.65
2018-12-30T13:55:55.611Z,8.62
2018-12-30T13:58:43.754Z,8.64
2018-12-30T14:01:39.728Z,8.64
2018-12-30T14:07:33.851Z,8.62
2018-12-30T14:10:25.302Z,9.35
2018-12-30T14:13:19.658Z,8.87
2018-12-30T14:16:08.958Z,8.70
2018-12-30T14:18:58.163Z,8.72
2018-12-30T14:21:57.573Z,8.69
2018-12-30T14:24:55.174Z,8.63
2018-12-30T14:27:37.681Z,8.63
2018-12-30T14:30:26.888Z,8.58
2018-12-30T14:33:15.203Z,8.58
2018-12-30T14:36:04.259Z,8.52
2018-12-30T14:38:51.970Z,8.52
2018-12-30T14:41:42.854Z,8.46
2018-12-30T14:44:33.438Z,8.47
2018-12-30T14:47:23.057Z,9.16
2018-12-30T14:50:12.258Z,8.66
2018-12-30T14:53:06.680Z,8.56
2018-12-30T14:56:01.705Z,8.53
2018-12-30T14:58:55.820Z,8.48
2018-12-30T15:01:47.588Z,8.50
2018-12-30T15:04:38.749Z,8.51
2018-12-30T15:07:33.020Z,8.51
2018-12-30T15:10:22.275Z,8.54
2018-12-30T15:13:12.946Z,8.50
2018-12-30T15:16:05.949Z,8.53
2018-12-30T15:18:56.908Z,8.53
2018-12-30T15:21:45.263Z,8.51
2018-12-30T15:24:42.229Z,8.49
2018-12-30T15:27:30.072Z,8.50
2018-12-30T15:33:24.281Z,8.49
2018-12-30T15:36:13.687Z,8.47
2018-12-30T15:39:00.914Z,8.45
2018-12-30T15:41:48.248Z,8.44
2018-12-30T15:44:35.463Z,8.43
2018-12-30T15:47:22.581Z,8.42
2018-12-30T15:50:12.394Z,8.43
2018-12-30T15:53:01.596Z,8.42
2018-12-30T15:55:48.783Z,8.42
2018-12-30T15:58:36.936Z,8.43
2018-12-30T16:01:24.983Z,8.45
2018-12-30T16:04:15.052Z,8.45
2018-12-30T16:07:03.036Z,8.44
2018-12-30T16:09:50.531Z,8.42
2018-12-30T16:12:38.058Z,8.41
2018-12-30T16:15:25.861Z,8.43
2018-12-30T16:18:13.546Z,9.08
2018-12-30T16:21:04.800Z,8.55
2018-12-30T16:23:51.850Z,8.45
2018-12-30T16:26:40.127Z,8.42
2018-12-30T16:29:28.711Z,9.09
2018-12-30T16:32:18.134Z,9.28
2018-12-30T16:35:05.460Z,8.67
2018-12-30T16:37:53.517Z,9.26
2018-12-30T16:40:40.955Z,9.36
2018-12-30T16:43:28.492Z,8.72
2018-12-30T16:46:18.174Z,8.56
2018-12-30T16:49:05.438Z,8.45
2018-12-30T16:51:52.444Z,8.40
2018-12-30T16:54:39.515Z,8.35
2018-12-30T16:57:28.767Z,8.33
2018-12-30T17:00:19.780Z,8.30
2018-12-30T17:03:07.230Z,8.29
2018-12-30T17:05:54.307Z,8.27
2018-12-30T17:08:41.941Z,8.23
2018-12-30T17:11:30.172Z,8.27
2018-12-30T17:14:18.655Z,8.24
2018-12-30T17:17:06.518Z,8.22
2018-12-30T17:19:53.466Z,8.22
2018-12-30T17:22:41.191Z,8.24
2018-12-30T17:25:29.150Z,8.90
2018-12-30T17:28:17.851Z,8.44
2018-12-30T17:31:07.942Z,8.34
2018-12-30T17:33:54.926Z,9.05
2018-12-30T17:36:42.131Z,8.52
2018-12-30T17:39:51.693Z,8.45
2018-12-30T17:42:34.984Z,8.39
2018-12-30T17:45:22.109Z,8.34
2018-12-30T17:48:09.878Z,8.36
2018-12-30T17:50:58.150Z,8.35
2018-12-30T17:53:54.455Z,8.32
2018-12-30T17:56:41.657Z,8.31
2018-12-30T17:59:28.708Z,8.29
2018-12-30T18:02:16.851Z,8.95
2018-12-30T18:05:04.492Z,9.13
2018-12-30T18:07:54.331Z,8.55
2018-12-30T18:10:48.269Z,8.41
2018-12-30T18:13:33.090Z,8.33
2018-12-30T18:16:21.194Z,8.30
2018-12-30T18:19:10.001Z,8.30
2018-12-30T18:22:00.529Z,8.28
2018-12-30T18:24:56.767Z,8.28
2018-12-30T18:27:45.514Z,8.25
2018-12-30T18:30:37.569Z,8.26
2018-12-30T18:33:24.563Z,8.27
2018-12-30T18:36:15.823Z,8.26
2018-12-30T18:39:16.620Z,8.22
2018-12-30T18:42:03.857Z,8.17
2018-12-30T18:44:51.064Z,8.12
2018-12-30T18:47:38.754Z,8.09
2018-12-30T18:50:26.050Z,8.76
2018-12-30T18:53:13.900Z,8.26
2018-12-30T18:56:06.694Z,8.16
2018-12-30T18:58:54.642Z,8.08
2018-12-30T19:01:42.420Z,8.07
2018-12-30T19:04:29.973Z,8.03
2018-12-30T19:07:21.072Z,8.03
2018-12-30T19:10:08.064Z,8.01
2018-12-30T19:12:55.634Z,7.97
2018-12-30T19:15:43.057Z,7.98
2018-12-30T19:18:30.206Z,8.01
2018-12-30T19:21:18.951Z,8.00
2018-12-30T19:24:07.902Z,8.00
2018-12-30T19:26:58.894Z,8.00
2018-12-30T19:29:46.478Z,7.98
2018-12-30T19:32:35.519Z,7.99
2018-12-30T19:35:24.871Z,8.02
2018-12-30T19:38:13.592Z,8.03
2018-12-30T19:41:03.709Z,8.03
2018-12-30T19:43:52.117Z,8.01
2018-12-30T19:46:45.054Z,8.68
2018-12-30T19:49:36.598Z,8.18
2018-12-30T19:52:28.113Z,8.05
2018-12-30T19:58:34.781Z,7.97
2018-12-30T20:01:24.965Z,7.96
2018-12-30T20:04:21.802Z,7.95
2018-12-30T20:07:09.291Z,7.93
2018-12-30T20:10:10.195Z,7.88
2018-12-30T20:12:59.533Z,7.87
2018-12-30T20:15:48.318Z,7.86
2018-12-30T20:21:48.690Z,8.83
2018-12-30T20:24:40.435Z,8.22
2018-12-30T20:27:30.374Z,8.83
2018-12-30T20:30:20.757Z,8.19
2018-12-30T20:33:08.957Z,8.84
2018-12-30T20:35:56.668Z,8.24
2018-12-30T20:38:49.845Z,8.08
2018-12-30T20:41:43.462Z,8.01
2018-12-30T20:44:32.371Z,7.96
2018-12-30T20:47:23.341Z,7.86
2018-12-30T20:53:21.474Z,7.77
2018-12-30T20:56:09.047Z,7.73
2018-12-30T20:58:58.747Z,7.70
2018-12-30T21:01:46.360Z,7.72
2018-12-30T21:04:35.440Z,8.44
2018-12-30T21:07:23.236Z,7.93
2018-12-30T21:10:11.443Z,7.82
2018-12-30T21:13:04.735Z,7.73
2018-12-30T21:15:56.751Z,7.66
2018-12-30T21:18:44.460Z,7.63
2018-12-30T21:21:35.752Z,8.31
2018-12-30T21:24:30.079Z,7.76
2018-12-30T21:27:22.544Z,7.58
2018-12-30T21:36:32.521Z,7.42
2018-12-30T21:39:25.646Z,7.37
2018-12-30T21:42:15.399Z,7.32
2018-12-30T21:45:13.874Z,7.28
2018-12-30T21:48:01.544Z,7.26
2018-12-30T21:53:58.688Z,7.24
2018-12-30T21:56:54.803Z,7.22
2018-12-30T21:59:42.326Z,7.29
2018-12-30T22:02:41.150Z,7.31
2018-12-30T22:05:32.352Z,7.33
2018-12-30T22:08:19.942Z,7.34
2018-12-30T22:11:07.792Z,7.34
2018-12-30T22:13:57.149Z,7.36
2018-12-30T22:19:57.632Z,7.38
2018-12-30T22:22:46.735Z,7.39
2018-12-30T22:25:36.635Z,7.40
2018-12-30T22:28:24.562Z,7.42
2018-12-30T22:31:14.234Z,8.14
2018-12-30T22:34:18.763Z,7.68
2018-12-30T22:37:06.957Z,7.59
2018-12-30T22:39:56.637Z,7.55
2018-12-30T22:42:44.046Z,7.52
2018-12-30T22:45:32.132Z,8.24
2018-12-30T22:48:19.872Z,7.74
2018-12-30T22:51:08.687Z,7.64
2018-12-30T22:53:59.131Z,7.59
2018-12-30T22:56:47.786Z,7.57
2018-12-30T22:59:36.470Z,8.27
2018-12-30T23:02:26.014Z,8.50
2018-12-30T23:05:13.184Z,8.63
2018-12-30T23:08:00.466Z,8.70
2018-12-30T23:10:49.240Z,8.01
2018-12-30T23:13:37.851Z,8.65
2018-12-30T23:16:25.284Z,8.06
2018-12-30T23:19:13.385Z,8.70
2018-12-30T23:22:10.376Z,8.08
2018-12-30T23:24:57.709Z,7.92
2018-12-30T23:27:45.341Z,7.83
2018-12-30T23:30:33.316Z,7.80
2018-12-30T23:33:21.769Z,7.75
2018-12-30T23:36:08.095Z,7.69
2018-12-30T23:38:58.714Z,7.63
2018-12-30T23:41:56.481Z,8.35
2018-12-30T23:46:14.468Z,8.67
2018-12-30T23:49:04.278Z,8.76
2018-12-30T23:52:00.896Z,8.11
2018-12-30T23:54:43.953Z,7.94
2018-12-30T23:57:36.091Z,7.86
